Island Walk, FL

6:01 PM EST on December 02, 2016 (GMT -0500)
Golden Gate Estates | | Change Station

Elev 15 ft 26.25 °N, 81.71 °W | Updated 476 days ago

Clear
Clear
79.0 °F
Feels Like 80 °F
N
0.0
Wind Variable Wind from North
Gusts 0.0 mph

Today
High -- | Low -- °F
--% Chance of Precip.
Yesterday
High -- | Low -- °F
Precip. -- in
Pressure 30.04 in
Visibility 10.0 miles
Clouds Clear
Heat Index 80 °F
Dew Point 60.4 °F
Humidity 53%
Rainfall in
Snow Depth Not available.
6:58 AM 5:34 PM
Waxing Crescent, 11% visible
METAR KAPF 022253Z 05008KT 10SM CLR 25/18 A3004 RMK AO2 SLP170 T02500183
Pressure 30.04 in
Visibility 10.0 miles
Clouds Clear
Heat Index 80 °F
Dew Point 60.4 °F
Humidity 53%
Rainfall in
Snow Depth Not available.
6:58 AM 5:34 PM
Waxing Crescent, 11% visible
METAR KAPF 022253Z 05008KT 10SM CLR 25/18 A3004 RMK AO2 SLP170 T02500183

10-Day Weather Forecast

Almanac

Astronomy

Dec. 02, 2016 Rise Set
Actual Time
Civil Twilight
Nautical Twilight
Astronomical Twilight
Moon
Length of Visible Light
Length of Day
Tomorrow will be .
, % of the Moon is Illuminated

Today's Extremes

State Highs State Lows

Community

WunderPhotos

Upload Photos

1,955,375 photos uploaded!

WunderBlog® & News

Nearby

Air Quality

  Air Quality AQ Index Pollutant
Not available.

Snow Depth

Station Depth Elevation

Earthquake Activity

City Distance Mag. Time & Date
Minimum magnitude displayed is 2.5.

Coastal Water Temperatures

Place Temperature

Stations

Nearby Weather Stations

Station Location Temp. Windchill Dew Point Humidity Wind Precip. Elev Updated Type
                   

Watches & Warnings

There are currently no watches in effect.